sensor_id;sensor_type;location;lat;lon;timestamp;P1;durP1;ratioP1;P2;durP2;ratioP2
18796;SDS011;9526;52.612;13.300;2022-10-17T00:00:26;23.80;;;17.15;;
18796;SDS011;9526;52.612;13.300;2022-10-17T00:02:51;24.20;;;16.98;;
18796;SDS011;9526;52.612;13.300;2022-10-17T00:05:16;23.48;;;16.75;;
18796;SDS011;9526;52.612;13.300;2022-10-17T00:07:40;26.80;;;18.45;;
18796;SDS011;9526;52.612;13.300;2022-10-17T00:10:04;24.95;;;17.23;;
18796;SDS011;9526;52.612;13.300;2022-10-17T00:12:30;24.58;;;16.70;;
18796;SDS011;9526;52.612;13.300;2022-10-17T00:14:53;21.05;;;16.58;;
18796;SDS011;9526;52.612;13.300;2022-10-17T00:17:17;29.08;;;18.05;;
18796;SDS011;9526;52.612;13.300;2022-10-17T00:19:42;25.95;;;17.20;;
18796;SDS011;9526;52.612;13.300;2022-10-17T00:22:05;25.67;;;17.00;;
18796;SDS011;9526;52.612;13.300;2022-10-17T00:24:29;25.88;;;17.13;;
18796;SDS011;9526;52.612;13.300;2022-10-17T00:26:53;23.48;;;16.55;;
18796;SDS011;9526;52.612;13.300;2022-10-17T00:29:16;23.92;;;17.27;;
18796;SDS011;9526;52.612;13.300;2022-10-17T00:31:41;24.73;;;16.92;;
18796;SDS011;9526;52.612;13.300;2022-10-17T00:34:05;25.50;;;16.25;;
18796;SDS011;9526;52.612;13.300;2022-10-17T00:36:30;24.95;;;17.05;;
18796;SDS011;9526;52.612;13.300;2022-10-17T00:38:56;23.58;;;15.48;;
18796;SDS011;9526;52.612;13.300;2022-10-17T00:41:22;21.77;;;16.15;;
18796;SDS011;9526;52.612;13.300;2022-10-17T00:43:48;26.42;;;17.23;;
18796;SDS011;9526;52.612;13.300;2022-10-17T00:46:14;26.63;;;16.83;;
18796;SDS011;9526;52.612;13.300;2022-10-17T00:48:37;22.95;;;16.38;;
18796;SDS011;9526;52.612;13.300;2022-10-17T00:51:02;23.10;;;16.52;;
18796;SDS011;9526;52.612;13.300;2022-10-17T00:53:28;24.38;;;16.52;;
18796;SDS011;9526;52.612;13.300;2022-10-17T00:55:51;23.17;;;16.33;;
18796;SDS011;9526;52.612;13.300;2022-10-17T00:58:16;26.98;;;15.88;;
18796;SDS011;9526;52.612;13.300;2022-10-17T01:00:41;23.63;;;15.27;;
18796;SDS011;9526;52.612;13.300;2022-10-17T01:03:06;25.02;;;15.93;;
18796;SDS011;9526;52.612;13.300;2022-10-17T01:05:29;21.75;;;15.60;;
18796;SDS011;9526;52.612;13.300;2022-10-17T01:07:53;20.02;;;14.93;;
18796;SDS011;9526;52.612;13.300;2022-10-17T01:10:18;21.90;;;15.30;;
18796;SDS011;9526;52.612;13.300;2022-10-17T01:12:51;22.08;;;14.38;;
18796;SDS011;9526;52.612;13.300;2022-10-17T01:15:28;20.17;;;14.38;;
18796;SDS011;9526;52.612;13.300;2022-10-17T01:18:25;24.88;;;14.23;;
18796;SDS011;9526;52.612;13.300;2022-10-17T01:21:14;21.20;;;14.43;;
18796;SDS011;9526;52.612;13.300;2022-10-17T01:33:14;22.42;;;14.00;;
18796;SDS011;9526;52.612;13.300;2022-10-17T01:35:51;22.77;;;14.98;;
18796;SDS011;9526;52.612;13.300;2022-10-17T01:38:28;16.35;;;13.07;;
18796;SDS011;9526;52.612;13.300;2022-10-17T01:40:59;18.98;;;13.25;;
18796;SDS011;9526;52.612;13.300;2022-10-17T01:43:28;19.40;;;13.80;;
18796;SDS011;9526;52.612;13.300;2022-10-17T01:45:57;21.52;;;13.73;;
18796;SDS011;9526;52.612;13.300;2022-10-17T01:48:27;19.90;;;12.80;;
18796;SDS011;9526;52.612;13.300;2022-10-17T01:50:57;20.90;;;12.73;;
18796;SDS011;9526;52.612;13.300;2022-10-17T01:53:28;18.08;;;13.07;;
18796;SDS011;9526;52.612;13.300;2022-10-17T01:55:56;17.00;;;12.95;;
18796;SDS011;9526;52.612;13.300;2022-10-17T01:58:24;18.35;;;12.60;;
18796;SDS011;9526;52.612;13.300;2022-10-17T02:00:54;15.80;;;11.88;;
18796;SDS011;9526;52.612;13.300;2022-10-17T02:03:23;17.38;;;12.52;;
18796;SDS011;9526;52.612;13.300;2022-10-17T02:05:50;17.85;;;12.65;;
18796;SDS011;9526;52.612;13.300;2022-10-17T02:08:23;19.30;;;12.50;;
18796;SDS011;9526;52.612;13.300;2022-10-17T02:10:50;19.20;;;13.07;;
18796;SDS011;9526;52.612;13.300;2022-10-17T02:13:19;19.63;;;12.93;;
18796;SDS011;9526;52.612;13.300;2022-10-17T02:15:56;19.17;;;11.93;;
18796;SDS011;9526;52.612;13.300;2022-10-17T02:18:43;23.33;;;13.02;;
18796;SDS011;9526;52.612;13.300;2022-10-17T02:21:25;19.55;;;13.00;;
18796;SDS011;9526;52.612;13.300;2022-10-17T02:23:59;20.80;;;13.63;;
18796;SDS011;9526;52.612;13.300;2022-10-17T02:26:34;22.27;;;13.80;;
18796;SDS011;9526;52.612;13.300;2022-10-17T02:29:05;20.48;;;14.07;;
18796;SDS011;9526;52.612;13.300;2022-10-17T02:31:38;21.83;;;14.13;;
18796;SDS011;9526;52.612;13.300;2022-10-17T02:34:10;20.48;;;13.60;;
18796;SDS011;9526;52.612;13.300;2022-10-17T02:36:42;22.25;;;13.95;;
18796;SDS011;9526;52.612;13.300;2022-10-17T02:39:14;21.48;;;13.23;;
18796;SDS011;9526;52.612;13.300;2022-10-17T02:41:40;17.85;;;12.25;;
18796;SDS011;9526;52.612;13.300;2022-10-17T02:44:06;18.50;;;13.23;;
18796;SDS011;9526;52.612;13.300;2022-10-17T02:46:31;17.30;;;11.88;;
18796;SDS011;9526;52.612;13.300;2022-10-17T02:48:58;17.95;;;11.82;;
18796;SDS011;9526;52.612;13.300;2022-10-17T02:51:32;18.52;;;12.48;;
18796;SDS011;9526;52.612;13.300;2022-10-17T02:54:04;16.65;;;11.52;;
18796;SDS011;9526;52.612;13.300;2022-10-17T02:56:36;19.42;;;11.73;;
18796;SDS011;9526;52.612;13.300;2022-10-17T02:59:04;15.35;;;11.68;;
18796;SDS011;9526;52.612;13.300;2022-10-17T03:01:31;17.08;;;11.23;;
18796;SDS011;9526;52.612;13.300;2022-10-17T03:04:04;16.83;;;12.02;;
18796;SDS011;9526;52.612;13.300;2022-10-17T03:06:31;17.02;;;10.80;;
18796;SDS011;9526;52.612;13.300;2022-10-17T03:08:55;14.00;;;10.25;;
18796;SDS011;9526;52.612;13.300;2022-10-17T03:11:18;16.60;;;11.20;;
18796;SDS011;9526;52.612;13.300;2022-10-17T03:13:43;15.68;;;12.00;;
18796;SDS011;9526;52.612;13.300;2022-10-17T03:16:07;14.43;;;11.02;;
18796;SDS011;9526;52.612;13.300;2022-10-17T03:18:31;19.60;;;12.55;;
18796;SDS011;9526;52.612;13.300;2022-10-17T03:20:56;16.02;;;11.35;;
18796;SDS011;9526;52.612;13.300;2022-10-17T03:23:21;17.30;;;11.73;;
18796;SDS011;9526;52.612;13.300;2022-10-17T03:25:45;20.08;;;12.63;;
18796;SDS011;9526;52.612;13.300;2022-10-17T03:28:09;18.70;;;11.48;;
18796;SDS011;9526;52.612;13.300;2022-10-17T03:30:34;15.65;;;12.18;;
18796;SDS011;9526;52.612;13.300;2022-10-17T03:33:00;17.13;;;13.23;;
18796;SDS011;9526;52.612;13.300;2022-10-17T03:35:24;18.48;;;11.93;;
18796;SDS011;9526;52.612;13.300;2022-10-17T03:37:49;19.52;;;12.25;;
18796;SDS011;9526;52.612;13.300;2022-10-17T03:40:16;13.75;;;11.20;;
18796;SDS011;9526;52.612;13.300;2022-10-17T03:42:39;16.75;;;13.07;;
18796;SDS011;9526;52.612;13.300;2022-10-17T03:45:04;18.65;;;12.57;;
18796;SDS011;9526;52.612;13.300;2022-10-17T03:47:29;14.20;;;11.90;;
18796;SDS011;9526;52.612;13.300;2022-10-17T03:49:53;17.40;;;11.60;;
18796;SDS011;9526;52.612;13.300;2022-10-17T03:52:16;17.60;;;11.93;;
18796;SDS011;9526;52.612;13.300;2022-10-17T03:54:41;16.98;;;12.23;;
18796;SDS011;9526;52.612;13.300;2022-10-17T03:57:06;17.83;;;12.15;;
18796;SDS011;9526;52.612;13.300;2022-10-17T03:59:30;16.27;;;12.05;;
18796;SDS011;9526;52.612;13.300;2022-10-17T04:02:01;16.85;;;11.70;;
18796;SDS011;9526;52.612;13.300;2022-10-17T04:04:25;16.95;;;12.05;;
18796;SDS011;9526;52.612;13.300;2022-10-17T04:06:48;18.52;;;12.35;;
18796;SDS011;9526;52.612;13.300;2022-10-17T04:09:12;16.00;;;11.63;;
18796;SDS011;9526;52.612;13.300;2022-10-17T04:11:45;19.30;;;11.88;;
18796;SDS011;9526;52.612;13.300;2022-10-17T04:14:11;18.65;;;11.25;;
18796;SDS011;9526;52.612;13.300;2022-10-17T04:16:35;16.75;;;10.48;;
18796;SDS011;9526;52.612;13.300;2022-10-17T04:19:06;15.52;;;11.60;;
18796;SDS011;9526;52.612;13.300;2022-10-17T04:21:33;16.88;;;10.75;;
18796;SDS011;9526;52.612;13.300;2022-10-17T04:24:00;16.75;;;11.57;;
18796;SDS011;9526;52.612;13.300;2022-10-17T04:26:38;16.05;;;11.63;;
18796;SDS011;9526;52.612;13.300;2022-10-17T04:29:01;15.07;;;11.55;;
18796;SDS011;9526;52.612;13.300;2022-10-17T04:31:26;17.85;;;11.82;;
18796;SDS011;9526;52.612;13.300;2022-10-17T04:34:00;18.00;;;11.73;;
18796;SDS011;9526;52.612;13.300;2022-10-17T04:36:24;18.35;;;12.00;;
18796;SDS011;9526;52.612;13.300;2022-10-17T04:38:48;16.65;;;11.40;;
18796;SDS011;9526;52.612;13.300;2022-10-17T04:41:13;19.05;;;12.43;;
18796;SDS011;9526;52.612;13.300;2022-10-17T04:43:40;19.50;;;11.88;;
18796;SDS011;9526;52.612;13.300;2022-10-17T04:46:12;19.85;;;12.55;;
18796;SDS011;9526;52.612;13.300;2022-10-17T04:48:39;16.83;;;12.00;;
18796;SDS011;9526;52.612;13.300;2022-10-17T04:51:04;18.40;;;12.18;;
18796;SDS011;9526;52.612;13.300;2022-10-17T04:53:41;20.40;;;12.85;;
18796;SDS011;9526;52.612;13.300;2022-10-17T04:56:06;22.33;;;13.23;;
18796;SDS011;9526;52.612;13.300;2022-10-17T04:58:32;17.48;;;11.73;;
18796;SDS011;9526;52.612;13.300;2022-10-17T05:00:55;18.73;;;12.35;;
18796;SDS011;9526;52.612;13.300;2022-10-17T05:03:22;20.10;;;12.30;;
18796;SDS011;9526;52.612;13.300;2022-10-17T05:05:47;20.13;;;12.57;;
18796;SDS011;9526;52.612;13.300;2022-10-17T05:08:11;19.40;;;12.25;;
18796;SDS011;9526;52.612;13.300;2022-10-17T05:10:35;17.65;;;11.35;;
18796;SDS011;9526;52.612;13.300;2022-10-17T05:12:59;15.15;;;10.70;;
18796;SDS011;9526;52.612;13.300;2022-10-17T05:15:25;17.90;;;11.88;;
18796;SDS011;9526;52.612;13.300;2022-10-17T05:17:52;18.10;;;11.30;;
18796;SDS011;9526;52.612;13.300;2022-10-17T05:20:18;17.80;;;11.43;;
18796;SDS011;9526;52.612;13.300;2022-10-17T05:22:43;20.92;;;12.98;;
18796;SDS011;9526;52.612;13.300;2022-10-17T05:25:08;17.90;;;11.95;;
18796;SDS011;9526;52.612;13.300;2022-10-17T05:27:32;17.40;;;11.45;;
18796;SDS011;9526;52.612;13.300;2022-10-17T05:29:56;15.13;;;10.35;;
18796;SDS011;9526;52.612;13.300;2022-10-17T05:32:23;18.35;;;11.68;;
18796;SDS011;9526;52.612;13.300;2022-10-17T05:34:47;15.68;;;11.55;;
18796;SDS011;9526;52.612;13.300;2022-10-17T05:37:11;16.88;;;11.63;;
18796;SDS011;9526;52.612;13.300;2022-10-17T05:39:40;17.20;;;11.93;;
18796;SDS011;9526;52.612;13.300;2022-10-17T05:42:09;17.20;;;11.05;;
18796;SDS011;9526;52.612;13.300;2022-10-17T05:44:33;22.40;;;12.07;;
18796;SDS011;9526;52.612;13.300;2022-10-17T05:46:57;15.30;;;11.23;;
18796;SDS011;9526;52.612;13.300;2022-10-17T05:49:21;20.00;;;12.35;;
18796;SDS011;9526;52.612;13.300;2022-10-17T05:52:05;19.88;;;12.38;;
18796;SDS011;9526;52.612;13.300;2022-10-17T05:54:41;19.63;;;12.88;;
18796;SDS011;9526;52.612;13.300;2022-10-17T05:57:05;18.42;;;12.13;;
18796;SDS011;9526;52.612;13.300;2022-10-17T05:59:30;21.42;;;12.45;;
18796;SDS011;9526;52.612;13.300;2022-10-17T06:02:02;20.48;;;11.98;;
18796;SDS011;9526;52.612;13.300;2022-10-17T06:04:25;26.70;;;13.10;;
18796;SDS011;9526;52.612;13.300;2022-10-17T06:06:49;22.63;;;12.73;;
18796;SDS011;9526;52.612;13.300;2022-10-17T06:09:13;18.92;;;12.43;;
18796;SDS011;9526;52.612;13.300;2022-10-17T06:11:42;22.33;;;12.48;;
18796;SDS011;9526;52.612;13.300;2022-10-17T06:14:06;23.67;;;12.35;;
18796;SDS011;9526;52.612;13.300;2022-10-17T06:16:32;20.50;;;13.02;;
18796;SDS011;9526;52.612;13.300;2022-10-17T06:18:55;23.45;;;12.70;;
18796;SDS011;9526;52.612;13.300;2022-10-17T06:21:21;27.70;;;13.93;;
18796;SDS011;9526;52.612;13.300;2022-10-17T06:23:53;29.70;;;13.32;;
18796;SDS011;9526;52.612;13.300;2022-10-17T06:26:29;69.82;;;15.98;;
18796;SDS011;9526;52.612;13.300;2022-10-17T06:28:54;79.72;;;16.13;;
18796;SDS011;9526;52.612;13.300;2022-10-17T06:31:20;68.70;;;16.15;;
18796;SDS011;9526;52.612;13.300;2022-10-17T06:33:44;26.48;;;13.07;;
18796;SDS011;9526;52.612;13.300;2022-10-17T06:36:10;32.67;;;12.25;;
18796;SDS011;9526;52.612;13.300;2022-10-17T06:38:37;20.23;;;12.43;;
18796;SDS011;9526;52.612;13.300;2022-10-17T06:41:09;22.63;;;12.88;;
18796;SDS011;9526;52.612;13.300;2022-10-17T06:43:35;16.63;;;11.73;;
18796;SDS011;9526;52.612;13.300;2022-10-17T06:46:19;19.42;;;12.00;;
18796;SDS011;9526;52.612;13.300;2022-10-17T06:49:02;18.13;;;12.02;;
18796;SDS011;9526;52.612;13.300;2022-10-17T06:51:36;17.52;;;11.27;;
18796;SDS011;9526;52.612;13.300;2022-10-17T06:54:03;15.85;;;10.38;;
18796;SDS011;9526;52.612;13.300;2022-10-17T06:56:46;16.30;;;10.63;;
18796;SDS011;9526;52.612;13.300;2022-10-17T06:59:31;14.13;;;10.20;;
18796;SDS011;9526;52.612;13.300;2022-10-17T07:02:02;15.52;;;9.25;;
18796;SDS011;9526;52.612;13.300;2022-10-17T07:04:27;14.77;;;9.85;;
18796;SDS011;9526;52.612;13.300;2022-10-17T07:06:50;14.43;;;9.30;;
18796;SDS011;9526;52.612;13.300;2022-10-17T07:09:17;11.82;;;9.30;;
18796;SDS011;9526;52.612;13.300;2022-10-17T07:11:41;11.98;;;8.23;;
18796;SDS011;9526;52.612;13.300;2022-10-17T07:14:04;10.60;;;7.35;;
18796;SDS011;9526;52.612;13.300;2022-10-17T07:16:28;10.30;;;7.40;;
18796;SDS011;9526;52.612;13.300;2022-10-17T07:18:59;9.48;;;7.65;;
18796;SDS011;9526;52.612;13.300;2022-10-17T07:21:28;12.52;;;7.00;;
18796;SDS011;9526;52.612;13.300;2022-10-17T07:23:59;9.88;;;7.25;;
18796;SDS011;9526;52.612;13.300;2022-10-17T07:26:23;19.65;;;7.22;;
18796;SDS011;9526;52.612;13.300;2022-10-17T07:28:49;10.57;;;6.55;;
18796;SDS011;9526;52.612;13.300;2022-10-17T07:31:35;8.68;;;6.32;;
18796;SDS011;9526;52.612;13.300;2022-10-17T07:34:01;10.13;;;6.55;;
18796;SDS011;9526;52.612;13.300;2022-10-17T07:36:25;9.30;;;6.30;;
18796;SDS011;9526;52.612;13.300;2022-10-17T07:38:50;6.78;;;6.03;;
18796;SDS011;9526;52.612;13.300;2022-10-17T07:41:14;8.82;;;6.10;;
18796;SDS011;9526;52.612;13.300;2022-10-17T07:43:43;8.00;;;5.95;;
18796;SDS011;9526;52.612;13.300;2022-10-17T07:46:08;8.15;;;5.97;;
18796;SDS011;9526;52.612;13.300;2022-10-17T07:48:33;7.05;;;5.30;;
18796;SDS011;9526;52.612;13.300;2022-10-17T07:50:58;7.07;;;5.30;;
18796;SDS011;9526;52.612;13.300;2022-10-17T07:53:24;7.95;;;5.00;;
18796;SDS011;9526;52.612;13.300;2022-10-17T07:55:48;8.48;;;5.22;;
18796;SDS011;9526;52.612;13.300;2022-10-17T07:58:12;6.47;;;5.60;;
18796;SDS011;9526;52.612;13.300;2022-10-17T08:00:36;7.75;;;5.07;;
18796;SDS011;9526;52.612;13.300;2022-10-17T08:03:00;8.70;;;5.15;;
18796;SDS011;9526;52.612;13.300;2022-10-17T08:05:24;9.07;;;5.05;;
18796;SDS011;9526;52.612;13.300;2022-10-17T08:07:49;7.50;;;4.85;;
18796;SDS011;9526;52.612;13.300;2022-10-17T08:10:13;8.55;;;5.05;;
18796;SDS011;9526;52.612;13.300;2022-10-17T08:12:37;6.53;;;4.40;;
18796;SDS011;9526;52.612;13.300;2022-10-17T08:15:01;8.07;;;4.22;;
18796;SDS011;9526;52.612;13.300;2022-10-17T08:17:26;5.07;;;3.67;;
18796;SDS011;9526;52.612;13.300;2022-10-17T08:19:49;5.32;;;4.05;;
18796;SDS011;9526;52.612;13.300;2022-10-17T08:22:13;10.52;;;4.00;;
18796;SDS011;9526;52.612;13.300;2022-10-17T08:24:38;3.75;;;3.33;;
18796;SDS011;9526;52.612;13.300;2022-10-17T08:27:03;4.47;;;3.78;;
18796;SDS011;9526;52.612;13.300;2022-10-17T08:29:32;4.78;;;3.60;;
18796;SDS011;9526;52.612;13.300;2022-10-17T08:31:55;6.25;;;3.70;;
18796;SDS011;9526;52.612;13.300;2022-10-17T08:34:22;6.90;;;3.70;;
18796;SDS011;9526;52.612;13.300;2022-10-17T08:36:46;8.45;;;3.58;;
18796;SDS011;9526;52.612;13.300;2022-10-17T08:39:09;5.88;;;3.83;;
18796;SDS011;9526;52.612;13.300;2022-10-17T08:41:38;5.10;;;3.72;;
18796;SDS011;9526;52.612;13.300;2022-10-17T08:44:18;5.78;;;3.42;;
18796;SDS011;9526;52.612;13.300;2022-10-17T08:46:54;6.65;;;3.80;;
18796;SDS011;9526;52.612;13.300;2022-10-17T08:49:22;6.60;;;3.47;;
18796;SDS011;9526;52.612;13.300;2022-10-17T08:52:01;8.73;;;3.88;;
18796;SDS011;9526;52.612;13.300;2022-10-17T08:54:33;5.13;;;3.60;;
18796;SDS011;9526;52.612;13.300;2022-10-17T08:57:07;8.57;;;3.75;;
18796;SDS011;9526;52.612;13.300;2022-10-17T08:59:35;5.15;;;3.50;;
18796;SDS011;9526;52.612;13.300;2022-10-17T09:02:00;8.05;;;3.63;;
18796;SDS011;9526;52.612;13.300;2022-10-17T09:04:46;4.63;;;3.47;;
18796;SDS011;9526;52.612;13.300;2022-10-17T09:07:24;5.75;;;3.45;;
18796;SDS011;9526;52.612;13.300;2022-10-17T09:09:56;6.50;;;3.50;;
18796;SDS011;9526;52.612;13.300;2022-10-17T09:12:32;4.90;;;3.47;;
18796;SDS011;9526;52.612;13.300;2022-10-17T09:15:22;5.68;;;3.25;;
18796;SDS011;9526;52.612;13.300;2022-10-17T09:18:03;10.27;;;3.10;;
18796;SDS011;9526;52.612;13.300;2022-10-17T09:20:35;4.75;;;3.25;;
18796;SDS011;9526;52.612;13.300;2022-10-17T09:23:03;5.78;;;3.03;;
18796;SDS011;9526;52.612;13.300;2022-10-17T09:25:33;3.78;;;2.90;;
18796;SDS011;9526;52.612;13.300;2022-10-17T09:28:10;8.95;;;3.10;;
18796;SDS011;9526;52.612;13.300;2022-10-17T09:30:41;6.72;;;2.88;;
18796;SDS011;9526;52.612;13.300;2022-10-17T09:33:10;3.58;;;3.00;;
18796;SDS011;9526;52.612;13.300;2022-10-17T09:35:56;4.13;;;2.88;;
18796;SDS011;9526;52.612;13.300;2022-10-17T09:38:22;7.80;;;3.13;;
18796;SDS011;9526;52.612;13.300;2022-10-17T09:40:55;5.75;;;3.13;;
18796;SDS011;9526;52.612;13.300;2022-10-17T09:43:24;2.85;;;2.60;;
18796;SDS011;9526;52.612;13.300;2022-10-17T09:45:54;6.28;;;2.42;;
18796;SDS011;9526;52.612;13.300;2022-10-17T09:48:28;4.28;;;2.88;;
18796;SDS011;9526;52.612;13.300;2022-10-17T09:50:58;3.72;;;2.60;;
18796;SDS011;9526;52.612;13.300;2022-10-17T09:53:43;8.70;;;2.95;;
18796;SDS011;9526;52.612;13.300;2022-10-17T09:56:11;6.38;;;2.80;;
18796;SDS011;9526;52.612;13.300;2022-10-17T09:58:42;4.47;;;3.00;;
18796;SDS011;9526;52.612;13.300;2022-10-17T10:01:16;5.47;;;2.92;;
18796;SDS011;9526;52.612;13.300;2022-10-17T10:03:45;5.72;;;3.00;;
18796;SDS011;9526;52.612;13.300;2022-10-17T10:06:11;5.13;;;2.60;;
18796;SDS011;9526;52.612;13.300;2022-10-17T10:08:47;4.63;;;2.95;;
18796;SDS011;9526;52.612;13.300;2022-10-17T10:11:13;7.03;;;2.70;;
18796;SDS011;9526;52.612;13.300;2022-10-17T10:13:38;8.90;;;2.80;;
18796;SDS011;9526;52.612;13.300;2022-10-17T10:16:16;4.15;;;2.65;;
18796;SDS011;9526;52.612;13.300;2022-10-17T10:18:44;4.13;;;2.92;;
18796;SDS011;9526;52.612;13.300;2022-10-17T10:21:12;7.55;;;2.80;;
18796;SDS011;9526;52.612;13.300;2022-10-17T10:23:38;5.80;;;2.72;;
18796;SDS011;9526;52.612;13.300;2022-10-17T10:26:04;5.40;;;2.60;;
18796;SDS011;9526;52.612;13.300;2022-10-17T10:28:50;6.50;;;2.80;;
18796;SDS011;9526;52.612;13.300;2022-10-17T10:31:25;3.50;;;2.80;;
18796;SDS011;9526;52.612;13.300;2022-10-17T10:33:55;4.90;;;3.08;;
18796;SDS011;9526;52.612;13.300;2022-10-17T10:36:21;3.53;;;2.60;;
18796;SDS011;9526;52.612;13.300;2022-10-17T10:38:49;3.80;;;2.67;;
18796;SDS011;9526;52.612;13.300;2022-10-17T10:41:15;3.65;;;2.67;;
18796;SDS011;9526;52.612;13.300;2022-10-17T10:43:39;7.03;;;3.38;;
18796;SDS011;9526;52.612;13.300;2022-10-17T10:46:15;9.98;;;2.88;;
18796;SDS011;9526;52.612;13.300;2022-10-17T10:48:49;5.63;;;2.53;;
18796;SDS011;9526;52.612;13.300;2022-10-17T10:51:16;4.97;;;2.60;;
18796;SDS011;9526;52.612;13.300;2022-10-17T10:53:46;7.00;;;2.50;;
18796;SDS011;9526;52.612;13.300;2022-10-17T10:56:15;4.38;;;2.63;;
18796;SDS011;9526;52.612;13.300;2022-10-17T10:58:48;3.65;;;2.38;;
18796;SDS011;9526;52.612;13.300;2022-10-17T11:01:18;3.08;;;2.22;;
18796;SDS011;9526;52.612;13.300;2022-10-17T11:03:53;6.60;;;2.67;;
18796;SDS011;9526;52.612;13.300;2022-10-17T11:06:28;7.43;;;3.03;;
18796;SDS011;9526;52.612;13.300;2022-10-17T11:09:03;4.32;;;2.72;;
18796;SDS011;9526;52.612;13.300;2022-10-17T11:11:36;4.43;;;2.80;;
18796;SDS011;9526;52.612;13.300;2022-10-17T11:14:07;3.75;;;2.50;;
18796;SDS011;9526;52.612;13.300;2022-10-17T11:16:36;3.58;;;2.65;;
18796;SDS011;9526;52.612;13.300;2022-10-17T11:19:10;3.40;;;2.40;;
18796;SDS011;9526;52.612;13.300;2022-10-17T11:21:45;5.50;;;2.17;;
18796;SDS011;9526;52.612;13.300;2022-10-17T11:24:22;4.50;;;2.60;;
18796;SDS011;9526;52.612;13.300;2022-10-17T11:26:52;3.03;;;2.42;;
18796;SDS011;9526;52.612;13.300;2022-10-17T11:29:21;4.60;;;2.63;;
18796;SDS011;9526;52.612;13.300;2022-10-17T11:31:51;7.35;;;2.58;;
18796;SDS011;9526;52.612;13.300;2022-10-17T11:34:19;3.83;;;2.45;;
18796;SDS011;9526;52.612;13.300;2022-10-17T11:36:48;5.65;;;2.17;;
18796;SDS011;9526;52.612;13.300;2022-10-17T11:39:17;5.20;;;2.53;;
18796;SDS011;9526;52.612;13.300;2022-10-17T11:41:45;3.92;;;2.50;;
18796;SDS011;9526;52.612;13.300;2022-10-17T11:44:14;4.88;;;2.50;;
18796;SDS011;9526;52.612;13.300;2022-10-17T11:46:44;7.03;;;2.40;;
18796;SDS011;9526;52.612;13.300;2022-10-17T11:49:14;6.63;;;2.80;;
18796;SDS011;9526;52.612;13.300;2022-10-17T11:51:45;4.10;;;2.60;;
18796;SDS011;9526;52.612;13.300;2022-10-17T11:54:23;3.85;;;2.30;;
18796;SDS011;9526;52.612;13.300;2022-10-17T11:57:01;2.95;;;2.35;;
18796;SDS011;9526;52.612;13.300;2022-10-17T11:59:52;6.25;;;2.38;;
18796;SDS011;9526;52.612;13.300;2022-10-17T12:02:35;4.97;;;2.50;;
18796;SDS011;9526;52.612;13.300;2022-10-17T12:05:11;3.35;;;2.50;;
18796;SDS011;9526;52.612;13.300;2022-10-17T12:07:47;4.05;;;2.47;;
18796;SDS011;9526;52.612;13.300;2022-10-17T12:10:18;3.88;;;2.30;;
18796;SDS011;9526;52.612;13.300;2022-10-17T12:12:53;5.22;;;2.63;;
18796;SDS011;9526;52.612;13.300;2022-10-17T12:15:26;3.97;;;2.22;;
18796;SDS011;9526;52.612;13.300;2022-10-17T12:17:53;6.53;;;2.50;;
18796;SDS011;9526;52.612;13.300;2022-10-17T12:20:27;5.65;;;2.58;;
18796;SDS011;9526;52.612;13.300;2022-10-17T12:22:59;3.78;;;2.50;;
18796;SDS011;9526;52.612;13.300;2022-10-17T12:25:49;3.05;;;2.22;;
18796;SDS011;9526;52.612;13.300;2022-10-17T12:28:23;10.43;;;2.75;;
18796;SDS011;9526;52.612;13.300;2022-10-17T12:30:51;8.63;;;2.92;;
18796;SDS011;9526;52.612;13.300;2022-10-17T12:33:21;6.25;;;2.60;;
18796;SDS011;9526;52.612;13.300;2022-10-17T12:36:35;3.55;;;2.33;;
18796;SDS011;9526;52.612;13.300;2022-10-17T12:42:28;4.13;;;2.30;;
18796;SDS011;9526;52.612;13.300;2022-10-17T12:44:54;7.25;;;2.72;;
18796;SDS011;9526;52.612;13.300;2022-10-17T12:47:28;7.75;;;2.50;;
18796;SDS011;9526;52.612;13.300;2022-10-17T12:50:01;4.65;;;2.58;;
18796;SDS011;9526;52.612;13.300;2022-10-17T12:52:28;3.47;;;2.55;;
18796;SDS011;9526;52.612;13.300;2022-10-17T12:55:22;5.97;;;2.90;;
18796;SDS011;9526;52.612;13.300;2022-10-17T12:57:49;5.80;;;2.40;;
18796;SDS011;9526;52.612;13.300;2022-10-17T13:00:21;6.45;;;2.50;;
18796;SDS011;9526;52.612;13.300;2022-10-17T13:02:54;4.32;;;2.50;;
18796;SDS011;9526;52.612;13.300;2022-10-17T13:05:26;9.70;;;3.00;;
18796;SDS011;9526;52.612;13.300;2022-10-17T13:07:54;3.33;;;2.40;;
18796;SDS011;9526;52.612;13.300;2022-10-17T13:10:24;3.78;;;2.38;;
18796;SDS011;9526;52.612;13.300;2022-10-17T13:12:52;8.07;;;2.65;;
18796;SDS011;9526;52.612;13.300;2022-10-17T13:15:24;5.80;;;2.72;;
18796;SDS011;9526;52.612;13.300;2022-10-17T13:17:55;6.88;;;2.25;;
18796;SDS011;9526;52.612;13.300;2022-10-17T13:20:21;6.00;;;2.25;;
18796;SDS011;9526;52.612;13.300;2022-10-17T13:22:52;6.70;;;2.55;;
18796;SDS011;9526;52.612;13.300;2022-10-17T13:25:19;3.95;;;2.42;;
18796;SDS011;9526;52.612;13.300;2022-10-17T13:27:44;6.25;;;2.58;;
18796;SDS011;9526;52.612;13.300;2022-10-17T13:30:22;3.38;;;2.40;;
18796;SDS011;9526;52.612;13.300;2022-10-17T13:32:52;5.43;;;2.30;;
18796;SDS011;9526;52.612;13.300;2022-10-17T13:35:21;4.38;;;2.45;;
18796;SDS011;9526;52.612;13.300;2022-10-17T13:38:10;6.85;;;2.42;;
18796;SDS011;9526;52.612;13.300;2022-10-17T13:40:37;3.25;;;2.30;;
18796;SDS011;9526;52.612;13.300;2022-10-17T13:43:12;2.40;;;1.98;;
18796;SDS011;9526;52.612;13.300;2022-10-17T13:45:43;2.90;;;2.15;;
18796;SDS011;9526;52.612;13.300;2022-10-17T13:48:16;5.00;;;2.40;;
18796;SDS011;9526;52.612;13.300;2022-10-17T13:50:42;4.70;;;2.35;;
18796;SDS011;9526;52.612;13.300;2022-10-17T13:53:18;5.22;;;2.28;;
18796;SDS011;9526;52.612;13.300;2022-10-17T13:55:55;6.30;;;2.80;;
18796;SDS011;9526;52.612;13.300;2022-10-17T13:58:42;4.40;;;2.58;;
18796;SDS011;9526;52.612;13.300;2022-10-17T14:01:08;4.45;;;2.30;;
18796;SDS011;9526;52.612;13.300;2022-10-17T14:03:33;4.50;;;2.30;;
18796;SDS011;9526;52.612;13.300;2022-10-17T14:06:13;6.28;;;2.10;;
18796;SDS011;9526;52.612;13.300;2022-10-17T14:08:49;10.30;;;2.35;;
18796;SDS011;9526;52.612;13.300;2022-10-17T14:11:22;5.65;;;2.15;;
18796;SDS011;9526;52.612;13.300;2022-10-17T14:13:51;3.08;;;2.30;;
18796;SDS011;9526;52.612;13.300;2022-10-17T14:16:16;8.20;;;2.20;;
18796;SDS011;9526;52.612;13.300;2022-10-17T14:18:41;5.82;;;2.00;;
18796;SDS011;9526;52.612;13.300;2022-10-17T14:21:08;4.00;;;2.25;;
18796;SDS011;9526;52.612;13.300;2022-10-17T14:26:48;8.55;;;2.42;;
18796;SDS011;9526;52.612;13.300;2022-10-17T14:29:19;5.82;;;2.60;;
18796;SDS011;9526;52.612;13.300;2022-10-17T14:31:45;7.32;;;2.50;;
18796;SDS011;9526;52.612;13.300;2022-10-17T14:34:15;8.30;;;2.40;;
18796;SDS011;9526;52.612;13.300;2022-10-17T14:36:43;8.60;;;2.38;;
18796;SDS011;9526;52.612;13.300;2022-10-17T14:39:17;5.38;;;2.53;;
18796;SDS011;9526;52.612;13.300;2022-10-17T14:41:45;3.67;;;2.33;;
18796;SDS011;9526;52.612;13.300;2022-10-17T14:44:13;7.35;;;2.05;;
18796;SDS011;9526;52.612;13.300;2022-10-17T14:46:43;4.63;;;2.55;;
18796;SDS011;9526;52.612;13.300;2022-10-17T14:49:15;6.97;;;2.35;;
18796;SDS011;9526;52.612;13.300;2022-10-17T14:54:51;6.45;;;2.40;;
18796;SDS011;9526;52.612;13.300;2022-10-17T14:57:17;5.45;;;2.53;;
18796;SDS011;9526;52.612;13.300;2022-10-17T14:59:45;5.53;;;2.45;;
18796;SDS011;9526;52.612;13.300;2022-10-17T15:02:16;8.13;;;2.47;;
18796;SDS011;9526;52.612;13.300;2022-10-17T15:04:40;7.80;;;2.80;;
18796;SDS011;9526;52.612;13.300;2022-10-17T15:07:03;6.65;;;2.55;;